Time;durP1;ratioP1;P1;durP2;ratioP2;P2;SDS_P1;SDS_P2;PMS_P1;PMS_P2;Temp;Humidity;BMP_temperature;BMP_pressure;BME280_temperature;BME280_humidity;BME280_pressure;Samples;Min_cycle;Max_cycle;Signal;HPM_P1;HPM_P2
2023/08/20 00:02:11;;;;;;;1.03;0.93;;;;;;;;;;5025807;28;58543;-73
2023/08/20 00:04:36;;;;;;;2.53;1.20;;;;;;;;;;5030105;28;58566;-73
2023/08/20 00:07:02;;;;;;;1.08;0.90;;;;;;;;;;5028694;28;57870;-73
2023/08/20 00:09:27;;;;;;;1.10;1.00;;;;;;;;;;5029918;28;58199;-73
2023/08/20 00:11:52;;;;;;;2.00;1.53;;;;;;;;;;5028417;28;57826;-73
2023/08/20 00:14:18;;;;;;;0.85;0.85;;;;;;;;;;5027959;28;58312;-73
2023/08/20 00:16:43;;;;;;;1.75;1.65;;;;;;;;;;5030517;28;57910;-73
2023/08/20 00:19:09;;;;;;;1.00;1.00;;;;;;;;;;5031896;28;57991;-73
2023/08/20 00:21:34;;;;;;;0.88;0.80;;;;;;;;;;5028280;28;57969;-72
2023/08/20 00:24:00;;;;;;;3.38;1.08;;;;;;;;;;5029301;28;57798;-73
2023/08/20 00:26:25;;;;;;;1.17;1.00;;;;;;;;;;5027700;28;57835;-73
2023/08/20 00:28:50;;;;;;;10.40;1.57;;;;;;;;;;5029508;28;58176;-73
2023/08/20 00:31:15;;;;;;;1.35;0.90;;;;;;;;;;5030644;28;57953;-73
2023/08/20 00:33:40;;;;;;;0.90;0.90;;;;;;;;;;5030923;28;58030;-73
2023/08/20 00:36:05;;;;;;;1.20;1.10;;;;;;;;;;5029373;28;58131;-73
2023/08/20 00:38:31;;;;;;;1.27;1.17;;;;;;;;;;5030298;28;57735;-73
2023/08/20 00:40:56;;;;;;;0.68;0.68;;;;;;;;;;5029495;28;57952;-73
2023/08/20 00:43:21;;;;;;;1.48;1.00;;;;;;;;;;5027682;28;57945;-73
2023/08/20 00:45:46;;;;;;;1.37;1.07;;;;;;;;;;5032104;28;58156;-73
2023/08/20 00:48:12;;;;;;;2.40;1.40;;;;;;;;;;5028804;28;58473;-73
2023/08/20 00:50:38;;;;;;;0.90;0.90;;;;;;;;;;5028781;28;57379;-71
2023/08/20 00:53:03;;;;;;;1.17;0.77;;;;;;;;;;5027538;28;57951;-73
2023/08/20 00:55:28;;;;;;;1.43;1.30;;;;;;;;;;5030223;28;57863;-72
2023/08/20 00:57:54;;;;;;;0.60;0.60;;;;;;;;;;5027656;28;57682;-73
2023/08/20 01:00:19;;;;;;;1.25;1.00;;;;;;;;;;5027365;28;58433;-74
2023/08/20 01:02:44;;;;;;;1.43;1.00;;;;;;;;;;5029060;28;58125;-72
2023/08/20 01:05:11;;;;;;;1.03;1.00;;;;;;;;;;5028590;28;57633;-73
2023/08/20 01:07:45;;;;;;;1.50;0.90;;;;;;;;;;5030730;28;57925;-73
2023/08/20 01:10:14;;;;;;;0.70;0.70;;;;;;;;;;5030190;28;58040;-73
2023/08/20 01:12:39;;;;;;;0.93;0.90;;;;;;;;;;5035945;28;57829;-73
2023/08/20 01:15:04;;;;;;;2.42;0.80;;;;;;;;;;5027676;28;57952;-72
2023/08/20 01:17:29;;;;;;;1.38;1.20;;;;;;;;;;5029712;28;57856;-73
2023/08/20 01:19:55;;;;;;;0.98;0.98;;;;;;;;;;5031187;28;57744;-73
2023/08/20 01:22:26;;;;;;;1.33;1.10;;;;;;;;;;5030773;28;57814;-73
2023/08/20 01:24:51;;;;;;;1.33;1.23;;;;;;;;;;5028908;28;58822;-73
2023/08/20 01:27:22;;;;;;;0.80;0.80;;;;;;;;;;5028828;28;57747;-73
2023/08/20 01:29:48;;;;;;;1.60;1.10;;;;;;;;;;5029897;28;57868;-72
2023/08/20 01:32:13;;;;;;;1.05;0.95;;;;;;;;;;5026603;28;58463;-73
2023/08/20 01:34:39;;;;;;;1.40;0.90;;;;;;;;;;5030926;28;58068;-72
2023/08/20 01:37:04;;;;;;;0.87;0.87;;;;;;;;;;5029282;28;58152;-73
2023/08/20 01:39:29;;;;;;;0.73;0.70;;;;;;;;;;5027670;28;57886;-72
2023/08/20 01:41:54;;;;;;;0.70;0.67;;;;;;;;;;5027763;28;58014;-73
2023/08/20 01:44:19;;;;;;;1.10;0.90;;;;;;;;;;5030856;28;57943;-73
2023/08/20 01:46:44;;;;;;;1.27;0.70;;;;;;;;;;5027446;28;58403;-72
2023/08/20 01:49:10;;;;;;;0.93;0.93;;;;;;;;;;5032793;28;58151;-73
2023/08/20 01:51:36;;;;;;;0.82;0.80;;;;;;;;;;5031300;28;57766;-73
2023/08/20 01:54:02;;;;;;;0.85;0.85;;;;;;;;;;5041254;28;58363;-74
2023/08/20 01:56:27;;;;;;;0.90;0.90;;;;;;;;;;5032267;28;57685;-73
2023/08/20 01:58:52;;;;;;;1.75;0.82;;;;;;;;;;5039023;28;57861;-73
2023/08/20 02:01:17;;;;;;;0.60;0.60;;;;;;;;;;5030772;28;57986;-73
2023/08/20 02:03:42;;;;;;;0.80;0.80;;;;;;;;;;5031631;28;58025;-73
2023/08/20 02:06:07;;;;;;;1.10;1.00;;;;;;;;;;5027866;28;57805;-73
2023/08/20 02:08:32;;;;;;;2.80;0.80;;;;;;;;;;5022963;28;58245;-73
2023/08/20 02:11:01;;;;;;;1.35;0.88;;;;;;;;;;5041777;28;58076;-73
2023/08/20 02:13:27;;;;;;;0.70;0.70;;;;;;;;;;5027097;28;58850;-72
2023/08/20 02:16:02;;;;;;;0.97;0.90;;;;;;;;;;5029877;28;58135;-72
2023/08/20 02:18:27;;;;;;;0.85;0.80;;;;;;;;;;5028164;28;58151;-73
2023/08/20 02:20:52;;;;;;;0.90;0.90;;;;;;;;;;5026115;28;58245;-73
2023/08/20 02:23:17;;;;;;;0.70;0.70;;;;;;;;;;5022969;28;57736;-73
2023/08/20 02:25:43;;;;;;;0.70;0.70;;;;;;;;;;5024681;28;58056;-73
2023/08/20 02:28:08;;;;;;;1.23;0.95;;;;;;;;;;5028759;28;58033;-73
2023/08/20 02:30:38;;;;;;;1.03;0.73;;;;;;;;;;5024929;28;58013;-73
2023/08/20 02:33:03;;;;;;;0.60;0.60;;;;;;;;;;5025139;28;57852;-72
2023/08/20 02:35:28;;;;;;;1.23;0.93;;;;;;;;;;5027602;28;58130;-73
2023/08/20 02:37:53;;;;;;;0.70;0.70;;;;;;;;;;5026120;28;58853;-73
2023/08/20 02:40:18;;;;;;;0.80;0.80;;;;;;;;;;5027357;28;57766;-73
2023/08/20 02:42:43;;;;;;;2.65;1.27;;;;;;;;;;5028313;28;58079;-70
2023/08/20 02:45:08;;;;;;;0.70;0.70;;;;;;;;;;5028599;28;57885;-73
2023/08/20 02:47:34;;;;;;;1.23;1.13;;;;;;;;;;5024288;28;57913;-73
2023/08/20 02:49:59;;;;;;;1.63;0.98;;;;;;;;;;5025969;28;57841;-73
2023/08/20 02:52:24;;;;;;;0.88;0.88;;;;;;;;;;5028797;28;57897;-73
2023/08/20 02:54:49;;;;;;;0.70;0.70;;;;;;;;;;5026847;28;58137;-73
2023/08/20 02:57:14;;;;;;;0.97;0.93;;;;;;;;;;5030092;28;58574;-73
2023/08/20 02:59:39;;;;;;;0.90;0.90;;;;;;;;;;5028128;28;57799;-72
2023/08/20 03:02:05;;;;;;;1.00;1.00;;;;;;;;;;5026219;28;57943;-73
2023/08/20 03:04:30;;;;;;;0.70;0.70;;;;;;;;;;5026966;28;58350;-73
2023/08/20 03:06:55;;;;;;;1.10;0.70;;;;;;;;;;5028480;28;57841;-74
2023/08/20 03:09:20;;;;;;;1.02;0.90;;;;;;;;;;5026486;28;58710;-73
2023/08/20 03:11:45;;;;;;;0.80;0.80;;;;;;;;;;5028994;28;58348;-72
2023/08/20 03:14:10;;;;;;;0.88;0.85;;;;;;;;;;5026904;28;57805;-72
2023/08/20 03:16:35;;;;;;;1.10;0.73;;;;;;;;;;5028137;28;58272;-73
2023/08/20 03:19:01;;;;;;;0.95;0.95;;;;;;;;;;5039210;28;59239;-73
2023/08/20 03:21:27;;;;;;;1.10;1.00;;;;;;;;;;5029447;28;58071;-73
2023/08/20 03:23:52;;;;;;;1.10;0.88;;;;;;;;;;5034563;28;61195;-73
2023/08/20 03:26:17;;;;;;;1.00;0.77;;;;;;;;;;5029354;28;58129;-72
2023/08/20 03:28:43;;;;;;;0.90;0.90;;;;;;;;;;5031661;28;57647;-73
2023/08/20 03:31:08;;;;;;;0.90;0.90;;;;;;;;;;5028234;28;58099;-72
2023/08/20 03:33:33;;;;;;;0.70;0.70;;;;;;;;;;5029958;28;57897;-73
2023/08/20 03:35:58;;;;;;;1.10;1.00;;;;;;;;;;5030063;28;57743;-71
2023/08/20 03:38:23;;;;;;;0.70;0.70;;;;;;;;;;5030874;28;57834;-73
2023/08/20 03:40:49;;;;;;;2.20;0.93;;;;;;;;;;5030495;28;57852;-73
2023/08/20 03:43:14;;;;;;;2.40;0.90;;;;;;;;;;5030979;28;57881;-72
2023/08/20 03:45:40;;;;;;;1.07;1.07;;;;;;;;;;5029063;28;58510;-72
2023/08/20 03:48:05;;;;;;;1.20;1.10;;;;;;;;;;5031439;28;57864;-73
2023/08/20 03:50:30;;;;;;;0.70;0.70;;;;;;;;;;5027452;28;57726;-73
2023/08/20 03:52:55;;;;;;;0.88;0.88;;;;;;;;;;5027164;28;58185;-72
2023/08/20 03:55:20;;;;;;;0.55;0.55;;;;;;;;;;5026714;28;58342;-72
2023/08/20 03:57:45;;;;;;;0.70;0.60;;;;;;;;;;5023862;28;58411;-72
2023/08/20 04:00:12;;;;;;;1.13;1.05;;;;;;;;;;5024687;28;58286;-72
2023/08/20 04:02:37;;;;;;;0.88;0.73;;;;;;;;;;5029649;28;58282;-73
2023/08/20 04:05:02;;;;;;;1.00;1.00;;;;;;;;;;5028815;28;58115;-72
2023/08/20 04:07:29;;;;;;;0.80;0.75;;;;;;;;;;5029570;28;57600;-73
2023/08/20 04:09:54;;;;;;;0.68;0.68;;;;;;;;;;5030074;28;57665;-72
2023/08/20 04:12:19;;;;;;;0.80;0.80;;;;;;;;;;5029822;28;58864;-73
2023/08/20 04:14:44;;;;;;;0.82;0.75;;;;;;;;;;5027986;28;57636;-73
2023/08/20 04:17:10;;;;;;;0.60;0.60;;;;;;;;;;5035031;28;59521;-73
2023/08/20 04:19:35;;;;;;;0.90;0.90;;;;;;;;;;5030454;28;58105;-71
2023/08/20 04:22:00;;;;;;;0.70;0.70;;;;;;;;;;5025576;28;58031;-73
2023/08/20 04:24:25;;;;;;;1.10;1.00;;;;;;;;;;5029794;28;57675;-72
2023/08/20 04:26:50;;;;;;;0.70;0.70;;;;;;;;;;5032406;28;57676;-73
2023/08/20 04:29:16;;;;;;;0.93;0.80;;;;;;;;;;5028886;28;58453;-73
2023/08/20 04:31:41;;;;;;;0.83;0.83;;;;;;;;;;5030010;28;58615;-72
2023/08/20 04:34:06;;;;;;;0.80;0.77;;;;;;;;;;5029057;28;58008;-72
2023/08/20 04:36:31;;;;;;;1.00;0.70;;;;;;;;;;5028711;28;58209;-73
2023/08/20 04:38:56;;;;;;;0.50;0.50;;;;;;;;;;5031101;28;58608;-72
2023/08/20 04:41:21;;;;;;;0.77;0.77;;;;;;;;;;5030361;28;58064;-73
2023/08/20 04:43:47;;;;;;;0.60;0.60;;;;;;;;;;5025877;28;57896;-73
2023/08/20 04:46:12;;;;;;;0.60;0.60;;;;;;;;;;5030118;28;57874;-73
2023/08/20 04:48:37;;;;;;;0.70;0.70;;;;;;;;;;5029956;28;57971;-73
2023/08/20 04:51:03;;;;;;;0.63;0.63;;;;;;;;;;5031427;28;57602;-73
2023/08/20 04:53:28;;;;;;;0.73;0.73;;;;;;;;;;5027927;28;57131;-72
2023/08/20 04:55:53;;;;;;;0.88;0.88;;;;;;;;;;5029849;28;58307;-73
2023/08/20 04:58:19;;;;;;;1.33;1.23;;;;;;;;;;5030373;28;58516;-73
2023/08/20 05:00:44;;;;;;;1.13;1.03;;;;;;;;;;5029976;28;57747;-73
2023/08/20 05:03:09;;;;;;;1.13;1.03;;;;;;;;;;5025429;28;57680;-73
2023/08/20 05:05:34;;;;;;;0.50;0.50;;;;;;;;;;5029487;28;57764;-73
2023/08/20 05:07:59;;;;;;;2.20;0.70;;;;;;;;;;5029984;28;57728;-73
2023/08/20 05:10:24;;;;;;;0.90;0.90;;;;;;;;;;5027590;28;60166;-73
2023/08/20 05:12:49;;;;;;;0.82;0.82;;;;;;;;;;5033270;28;58207;-72
2023/08/20 05:15:15;;;;;;;0.97;0.90;;;;;;;;;;5026942;28;59321;-72
2023/08/20 05:17:40;;;;;;;0.77;0.77;;;;;;;;;;5032887;28;57794;-73
2023/08/20 05:20:05;;;;;;;0.85;0.80;;;;;;;;;;5033061;28;58312;-72
2023/08/20 05:22:30;;;;;;;0.60;0.60;;;;;;;;;;5029500;28;57762;-73
2023/08/20 05:24:56;;;;;;;0.68;0.68;;;;;;;;;;5032872;28;57522;-73
2023/08/20 05:27:21;;;;;;;0.97;0.90;;;;;;;;;;5032408;28;58281;-73
2023/08/20 05:29:46;;;;;;;0.60;0.60;;;;;;;;;;5033551;28;57916;-69
2023/08/20 05:32:11;;;;;;;0.55;0.55;;;;;;;;;;5032844;28;57840;-73
2023/08/20 05:34:36;;;;;;;0.70;0.70;;;;;;;;;;5032547;28;58039;-71
2023/08/20 05:37:02;;;;;;;0.60;0.60;;;;;;;;;;5027723;28;58029;-73
2023/08/20 05:39:27;;;;;;;0.43;0.43;;;;;;;;;;5027025;28;58068;-73
2023/08/20 05:41:55;;;;;;;0.60;0.60;;;;;;;;;;5044083;28;57900;-71
2023/08/20 05:44:20;;;;;;;;;;;;;;;;;;5029023;28;57921;-73
2023/08/20 05:46:45;;;;;;;0.80;0.80;;;;;;;;;;5034593;28;57638;-73
2023/08/20 05:49:12;;;;;;;0.80;0.80;;;;;;;;;;5029945;28;57802;-72
2023/08/20 05:51:37;;;;;;;0.73;0.73;;;;;;;;;;5031682;28;57889;-72
2023/08/20 05:54:02;;;;;;;1.00;0.90;;;;;;;;;;5032626;28;58185;-73
2023/08/20 05:56:27;;;;;;;0.70;0.70;;;;;;;;;;5028248;28;57803;-72
2023/08/20 05:58:52;;;;;;;0.67;0.67;;;;;;;;;;5026829;28;58678;-73
2023/08/20 06:01:17;;;;;;;0.80;0.80;;;;;;;;;;5030720;28;57976;-73
2023/08/20 06:03:43;;;;;;;0.52;0.52;;;;;;;;;;5031833;28;57833;-73
2023/08/20 06:06:08;;;;;;;1.30;0.60;;;;;;;;;;5027745;28;58181;-72
2023/08/20 06:08:33;;;;;;;0.50;0.50;;;;;;;;;;5027709;28;58632;-73
2023/08/20 06:10:58;;;;;;;0.70;0.70;;;;;;;;;;5029497;28;58157;-72
2023/08/20 06:13:23;;;;;;;0.73;0.73;;;;;;;;;;5028839;28;58210;-72
2023/08/20 06:15:48;;;;;;;0.60;0.60;;;;;;;;;;5026482;28;58401;-72
2023/08/20 06:18:13;;;;;;;0.90;0.90;;;;;;;;;;5029850;28;58071;-73
2023/08/20 06:20:39;;;;;;;0.70;0.70;;;;;;;;;;5035298;28;59488;-73
2023/08/20 06:23:04;;;;;;;2.38;0.75;;;;;;;;;;5029673;28;57771;-73
2023/08/20 06:25:29;;;;;;;0.60;0.60;;;;;;;;;;5031848;28;58265;-73
2023/08/20 06:27:55;;;;;;;0.63;0.63;;;;;;;;;;5029153;28;58733;-73
2023/08/20 06:30:20;;;;;;;0.85;0.82;;;;;;;;;;5031816;28;57894;-73
2023/08/20 06:32:45;;;;;;;0.77;0.77;;;;;;;;;;5031615;28;58383;-72
2023/08/20 06:35:10;;;;;;;0.85;0.85;;;;;;;;;;5029325;28;58224;-73
2023/08/20 06:37:36;;;;;;;0.55;0.52;;;;;;;;;;5030813;28;58167;-73
2023/08/20 06:40:01;;;;;;;1.07;1.00;;;;;;;;;;5032312;28;58704;-73
2023/08/20 06:42:26;;;;;;;0.70;0.70;;;;;;;;;;5030486;28;58032;-72
2023/08/20 06:44:51;;;;;;;2.15;0.80;;;;;;;;;;5028446;28;58033;-73
2023/08/20 06:47:16;;;;;;;0.70;0.70;;;;;;;;;;5024854;28;57632;-73
2023/08/20 06:49:41;;;;;;;0.90;0.90;;;;;;;;;;5023483;28;57744;-72
2023/08/20 06:52:07;;;;;;;0.60;0.60;;;;;;;;;;5024743;28;57954;-73
2023/08/20 06:54:32;;;;;;;0.68;0.68;;;;;;;;;;5025356;28;57907;-73
2023/08/20 06:56:57;;;;;;;1.38;0.80;;;;;;;;;;5021928;28;58052;-73
2023/08/20 06:59:23;;;;;;;0.83;0.80;;;;;;;;;;5024504;28;58376;-72
2023/08/20 07:01:48;;;;;;;0.60;0.60;;;;;;;;;;5022589;28;58118;-71
2023/08/20 07:04:13;;;;;;;1.00;0.80;;;;;;;;;;5023930;28;58283;-73
2023/08/20 07:06:38;;;;;;;0.90;0.90;;;;;;;;;;5021487;28;59371;-72
2023/08/20 07:09:04;;;;;;;1.13;1.02;;;;;;;;;;5027466;28;57652;-72
2023/08/20 07:11:29;;;;;;;0.50;0.50;;;;;;;;;;5023665;28;57541;-72
2023/08/20 07:13:54;;;;;;;2.03;0.57;;;;;;;;;;5024596;28;57845;-73
2023/08/20 07:16:19;;;;;;;1.03;0.93;;;;;;;;;;5029528;28;57802;-72
2023/08/20 07:18:44;;;;;;;0.82;0.50;;;;;;;;;;5029124;28;57963;-72
2023/08/20 07:21:09;;;;;;;0.90;0.90;;;;;;;;;;5027502;28;58139;-72
2023/08/20 07:23:35;;;;;;;1.00;0.75;;;;;;;;;;5029617;28;58299;-72
2023/08/20 07:26:04;;;;;;;1.43;0.73;;;;;;;;;;5023502;28;58047;-73
2023/08/20 07:28:56;;;;;;;1.25;1.10;;;;;;;;;;5025605;28;58125;-71
2023/08/20 07:31:14;;;;;;;1.17;0.60;;;;;;;;;;5025201;28;57788;-73
2023/08/20 07:33:39;;;;;;;1.27;1.10;;;;;;;;;;5027678;28;57796;-73
2023/08/20 07:36:04;;;;;;;1.52;1.15;;;;;;;;;;5030992;28;58234;-71
2023/08/20 07:38:29;;;;;;;0.83;0.73;;;;;;;;;;5026608;28;58037;-73
2023/08/20 07:40:55;;;;;;;0.80;0.80;;;;;;;;;;5027474;28;57787;-75
2023/08/20 07:43:20;;;;;;;1.45;1.00;;;;;;;;;;5031056;28;57709;-74
2023/08/20 07:45:45;;;;;;;1.60;0.80;;;;;;;;;;5029370;28;57890;-72
2023/08/20 07:48:10;;;;;;;1.20;0.90;;;;;;;;;;5029275;28;57919;-72
2023/08/20 07:50:35;;;;;;;1.02;0.93;;;;;;;;;;5024613;28;58018;-72
2023/08/20 07:53:00;;;;;;;5.28;0.90;;;;;;;;;;5027205;28;57802;-72
2023/08/20 07:55:25;;;;;;;1.50;0.98;;;;;;;;;;5029809;28;59209;-72
2023/08/20 07:57:52;;;;;;;2.03;1.67;;;;;;;;;;5030827;28;57833;-73
2023/08/20 08:00:17;;;;;;;6.30;1.77;;;;;;;;;;5028306;28;57865;-73
2023/08/20 08:02:42;;;;;;;2.10;1.90;;;;;;;;;;5032603;28;57872;-73
2023/08/20 08:05:08;;;;;;;1.92;1.77;;;;;;;;;;5027264;28;57988;-73
2023/08/20 08:07:33;;;;;;;4.43;1.77;;;;;;;;;;5030231;28;57660;-74
2023/08/20 08:09:58;;;;;;;5.00;2.90;;;;;;;;;;5032559;28;58955;-74
2023/08/20 08:12:23;;;;;;;3.33;2.92;;;;;;;;;;5027498;28;57984;-72
2023/08/20 08:14:48;;;;;;;3.70;2.00;;;;;;;;;;5029405;28;57818;-72
2023/08/20 08:17:13;;;;;;;5.80;2.42;;;;;;;;;;5028043;28;58339;-72
2023/08/20 08:19:38;;;;;;;3.40;3.03;;;;;;;;;;5029690;28;58097;-73
2023/08/20 08:22:04;;;;;;;10.25;3.80;;;;;;;;;;5039176;28;58646;-73
2023/08/20 08:24:29;;;;;;;7.57;4.30;;;;;;;;;;5026986;28;58176;-72
2023/08/20 08:26:54;;;;;;;11.07;3.03;;;;;;;;;;5035360;28;57829;-73
2023/08/20 08:29:19;;;;;;;4.35;3.08;;;;;;;;;;5030401;28;57756;-72
2023/08/20 08:31:44;;;;;;;2.00;1.80;;;;;;;;;;5026715;28;57861;-70
2023/08/20 08:34:09;;;;;;;3.65;3.22;;;;;;;;;;5026988;28;57649;-70
2023/08/20 08:36:35;;;;;;;7.15;4.25;;;;;;;;;;5023589;28;58134;-68
2023/08/20 08:39:00;;;;;;;2.30;1.87;;;;;;;;;;5025655;28;57889;-71
2023/08/20 08:41:25;;;;;;;4.80;2.55;;;;;;;;;;5026360;28;58288;-71
2023/08/20 08:43:51;;;;;;;4.80;2.90;;;;;;;;;;5032648;28;58361;-71
2023/08/20 08:46:17;;;;;;;4.88;1.60;;;;;;;;;;5029539;28;58098;-71
2023/08/20 08:48:42;;;;;;;3.33;1.92;;;;;;;;;;5033100;28;58046;-70
2023/08/20 08:51:08;;;;;;;3.50;1.92;;;;;;;;;;5028857;28;59738;-71
2023/08/20 08:53:33;;;;;;;2.05;1.85;;;;;;;;;;5032659;28;58096;-71
2023/08/20 08:55:59;;;;;;;5.33;2.00;;;;;;;;;;5031899;28;57833;-71
2023/08/20 08:58:24;;;;;;;2.80;1.70;;;;;;;;;;5033956;28;57678;-71
2023/08/20 09:00:49;;;;;;;2.47;2.27;;;;;;;;;;5035081;28;58014;-71
2023/08/20 09:03:15;;;;;;;2.47;1.90;;;;;;;;;;5033288;28;57578;-70
2023/08/20 09:05:50;;;;;;;4.00;2.47;;;;;;;;;;5032923;28;57922;-71
2023/08/20 09:08:28;;;;;;;5.53;2.30;;;;;;;;;;5033191;28;58195;-70
2023/08/20 09:10:55;;;;;;;3.53;2.50;;;;;;;;;;5025017;28;58332;-69
2023/08/20 09:13:32;;;;;;;5.10;2.17;;;;;;;;;;5028863;28;57957;-70
2023/08/20 09:15:57;;;;;;;3.72;2.20;;;;;;;;;;5030907;28;58194;-70
2023/08/20 09:18:22;;;;;;;2.40;2.00;;;;;;;;;;5030665;28;58132;-70
2023/08/20 09:20:51;;;;;;;6.73;3.13;;;;;;;;;;5031496;28;57955;-72
2023/08/20 09:23:16;;;;;;;7.63;3.40;;;;;;;;;;5030019;28;58542;-72
2023/08/20 09:25:42;;;;;;;8.23;3.40;;;;;;;;;;5030169;28;57980;-74
2023/08/20 09:28:08;;;;;;;3.05;2.50;;;;;;;;;;5032764;28;57819;-72
2023/08/20 09:30:34;;;;;;;3.70;2.50;;;;;;;;;;5029393;28;58345;-73
2023/08/20 09:33:03;;;;;;;4.18;1.85;;;;;;;;;;5034727;28;57963;-71
2023/08/20 09:35:28;;;;;;;8.65;3.05;;;;;;;;;;5031338;28;57866;-72
2023/08/20 09:37:58;;;;;;;8.13;2.30;;;;;;;;;;5030334;28;58992;-71
2023/08/20 09:40:23;;;;;;;11.93;2.75;;;;;;;;;;5032628;28;57786;-72
2023/08/20 09:42:48;;;;;;;8.35;2.42;;;;;;;;;;5032472;28;58178;-74
2023/08/20 09:45:13;;;;;;;9.77;2.85;;;;;;;;;;5031655;28;57922;-72
2023/08/20 09:47:40;;;;;;;17.20;3.07;;;;;;;;;;5031867;28;57914;-72
2023/08/20 09:50:07;;;;;;;8.20;2.30;;;;;;;;;;5033113;28;58329;-72
2023/08/20 09:52:40;;;;;;;10.32;2.58;;;;;;;;;;5031564;28;58002;-73
2023/08/20 09:55:09;;;;;;;6.47;2.38;;;;;;;;;;5029540;28;58310;-74
2023/08/20 09:57:40;;;;;;;7.07;2.55;;;;;;;;;;5029867;28;57996;-72
2023/08/20 10:00:09;;;;;;;7.50;3.17;;;;;;;;;;5027599;28;57810;-74
2023/08/20 10:02:34;;;;;;;4.30;2.47;;;;;;;;;;5031177;28;62779;-72
2023/08/20 10:05:02;;;;;;;13.27;3.03;;;;;;;;;;5031956;28;57860;-70
2023/08/20 10:07:31;;;;;;;5.28;2.15;;;;;;;;;;5027377;28;57827;-73
2023/08/20 10:09:57;;;;;;;4.82;2.20;;;;;;;;;;5030226;28;57669;-74
2023/08/20 10:12:22;;;;;;;5.30;2.00;;;;;;;;;;5031238;28;58724;-70
2023/08/20 10:14:48;;;;;;;16.73;3.40;;;;;;;;;;5034175;28;58477;-72
2023/08/20 10:17:15;;;;;;;11.53;2.90;;;;;;;;;;5031469;28;59023;-70
2023/08/20 10:19:40;;;;;;;6.90;2.87;;;;;;;;;;5033197;28;58183;-70
2023/08/20 10:22:06;;;;;;;5.40;2.30;;;;;;;;;;5033534;28;58815;-70
2023/08/20 10:24:49;;;;;;;3.40;2.33;;;;;;;;;;5030278;28;58314;-71
2023/08/20 10:27:24;;;;;;;6.22;2.28;;;;;;;;;;5029816;28;58164;-73
2023/08/20 10:29:49;;;;;;;6.57;2.42;;;;;;;;;;5032568;28;57588;-70
2023/08/20 10:32:14;;;;;;;7.30;3.23;;;;;;;;;;5030639;28;58046;-71
2023/08/20 10:34:42;;;;;;;7.63;2.13;;;;;;;;;;5028537;28;58220;-71
2023/08/20 10:37:13;;;;;;;10.25;2.47;;;;;;;;;;5033347;28;57759;-72
2023/08/20 10:39:39;;;;;;;8.05;3.35;;;;;;;;;;5030079;28;57838;-73
2023/08/20 10:42:19;;;;;;;9.68;2.17;;;;;;;;;;5032258;28;58245;-69
2023/08/20 10:45:00;;;;;;;7.38;2.85;;;;;;;;;;5032959;28;61627;-71
2023/08/20 10:47:34;;;;;;;8.30;3.33;;;;;;;;;;5028946;28;57842;-69
2023/08/20 10:50:00;;;;;;;13.13;2.55;;;;;;;;;;5026844;28;57887;-68
2023/08/20 10:52:25;;;;;;;8.73;2.33;;;;;;;;;;5028427;28;58330;-70
2023/08/20 10:54:51;;;;;;;4.80;2.53;;;;;;;;;;5027412;28;58227;-70
2023/08/20 10:57:16;;;;;;;8.77;1.48;;;;;;;;;;5027475;28;57874;-71
2023/08/20 10:59:42;;;;;;;3.70;2.57;;;;;;;;;;5029435;28;57948;-71
2023/08/20 11:02:10;;;;;;;16.27;3.25;;;;;;;;;;5027631;28;57811;-72
2023/08/20 11:04:35;;;;;;;;;;;;;;;;;;5026583;28;57893;-71
2023/08/20 11:07:00;;;;;;;8.27;3.05;;;;;;;;;;5022397;28;58170;-71
2023/08/20 11:09:27;;;;;;;7.90;2.45;;;;;;;;;;5030206;28;58076;-71
2023/08/20 11:11:52;;;;;;;8.15;2.17;;;;;;;;;;5028213;28;58591;-71
2023/08/20 11:14:18;;;;;;;7.43;2.25;;;;;;;;;;5028143;28;58336;-69
2023/08/20 11:16:44;;;;;;;3.80;2.42;;;;;;;;;;5030008;28;58280;-68
2023/08/20 11:19:09;;;;;;;12.00;2.55;;;;;;;;;;5028586;28;58050;-69
2023/08/20 11:21:35;;;;;;;2.80;1.30;;;;;;;;;;5029397;28;58018;-70
2023/08/20 11:24:00;;;;;;;5.57;1.70;;;;;;;;;;5027703;28;57749;-71
2023/08/20 11:26:26;;;;;;;7.43;2.58;;;;;;;;;;5028186;28;57950;-71
2023/08/20 11:28:51;;;;;;;3.50;1.60;;;;;;;;;;5028537;28;57662;-72
2023/08/20 11:31:16;;;;;;;2.55;1.60;;;;;;;;;;5027703;28;57822;-71
2023/08/20 11:33:41;;;;;;;4.50;2.15;;;;;;;;;;5029007;28;57588;-71
2023/08/20 11:36:07;;;;;;;6.83;2.40;;;;;;;;;;5029544;28;58792;-71
2023/08/20 11:38:32;;;;;;;11.63;2.65;;;;;;;;;;5029077;28;58436;-69
2023/08/20 11:40:59;;;;;;;9.47;1.80;;;;;;;;;;5029202;28;57704;-68
2023/08/20 11:43:24;;;;;;;4.75;1.95;;;;;;;;;;5026897;28;58911;-68
2023/08/20 11:45:49;;;;;;;4.20;1.83;;;;;;;;;;5026805;28;58077;-68
2023/08/20 11:48:15;;;;;;;6.60;2.00;;;;;;;;;;5027807;28;59202;-68
2023/08/20 11:50:41;;;;;;;5.97;2.40;;;;;;;;;;5028282;28;57841;-68
2023/08/20 11:53:06;;;;;;;2.15;1.52;;;;;;;;;;5025944;28;58189;-69
2023/08/20 11:55:31;;;;;;;5.10;1.77;;;;;;;;;;5028802;28;58378;-68
2023/08/20 11:57:57;;;;;;;9.48;2.05;;;;;;;;;;5029805;28;57671;-67
2023/08/20 12:00:26;;;;;;;5.97;2.60;;;;;;;;;;5029799;28;57822;-66
2023/08/20 12:02:55;;;;;;;4.82;1.17;;;;;;;;;;5026955;28;57962;-68
2023/08/20 12:05:21;;;;;;;6.32;1.58;;;;;;;;;;5028648;28;57857;-69
2023/08/20 12:08:03;;;;;;;12.20;1.77;;;;;;;;;;5025959;28;58110;-72
2023/08/20 12:10:29;;;;;;;7.25;2.45;;;;;;;;;;5042776;28;59847;-72
2023/08/20 12:12:55;;;;;;;8.23;2.17;;;;;;;;;;5028646;28;58131;-71
2023/08/20 12:15:21;;;;;;;8.55;2.42;;;;;;;;;;5029540;28;58138;-72
2023/08/20 12:18:15;;;;;;;5.07;1.80;;;;;;;;;;5026402;28;57664;-72
2023/08/20 12:20:41;;;;;;;4.05;1.88;;;;;;;;;;5012097;28;57498;-71
2023/08/20 12:23:06;;;;;;;2.55;1.40;;;;;;;;;;5027200;28;58203;-71
2023/08/20 12:25:33;;;;;;;6.57;1.40;;;;;;;;;;5028990;28;58084;-71
2023/08/20 12:28:00;;;;;;;6.38;1.65;;;;;;;;;;5028496;28;58240;-71
2023/08/20 12:30:25;;;;;;;3.40;2.00;;;;;;;;;;5027897;28;59186;-73
2023/08/20 12:32:51;;;;;;;4.97;1.40;;;;;;;;;;5029473;28;57940;-70
2023/08/20 12:35:16;;;;;;;4.40;1.30;;;;;;;;;;5035708;28;58400;-70
2023/08/20 12:37:41;;;;;;;7.73;1.40;;;;;;;;;;5026727;28;58442;-69
2023/08/20 12:40:11;;;;;;;7.00;1.17;;;;;;;;;;5030193;28;58288;-70
2023/08/20 12:42:38;;;;;;;6.63;1.50;;;;;;;;;;5028320;28;57832;-69
2023/08/20 12:45:03;;;;;;;7.47;1.13;;;;;;;;;;5029384;28;58437;-68
2023/08/20 12:47:29;;;;;;;7.35;1.90;;;;;;;;;;5022951;28;58195;-68
2023/08/20 12:49:54;;;;;;;3.22;1.02;;;;;;;;;;5026154;28;58600;-71
2023/08/20 12:52:19;;;;;;;4.25;1.42;;;;;;;;;;5022755;28;58674;-69
2023/08/20 12:54:44;;;;;;;4.33;2.20;;;;;;;;;;5026665;28;57862;-68
2023/08/20 12:57:10;;;;;;;9.70;2.47;;;;;;;;;;5025586;28;58069;-68
2023/08/20 12:59:35;;;;;;;1.97;1.13;;;;;;;;;;5027153;28;57917;-72
2023/08/20 13:02:00;;;;;;;9.17;1.40;;;;;;;;;;5026779;28;58382;-70
2023/08/20 13:04:25;;;;;;;1.03;0.80;;;;;;;;;;5027169;28;58074;-69
2023/08/20 13:06:50;;;;;;;6.57;0.83;;;;;;;;;;5030183;28;57758;-70
2023/08/20 13:09:16;;;;;;;3.00;0.97;;;;;;;;;;5028803;28;57654;-68
2023/08/20 13:11:42;;;;;;;3.90;0.80;;;;;;;;;;5028683;28;57886;-70
2023/08/20 13:14:08;;;;;;;4.32;1.20;;;;;;;;;;5024764;28;58310;-68
2023/08/20 13:16:33;;;;;;;2.50;0.83;;;;;;;;;;5027061;28;57671;-68
2023/08/20 13:18:58;;;;;;;10.67;0.80;;;;;;;;;;5026575;28;57845;-68
2023/08/20 13:21:23;;;;;;;0.93;0.47;;;;;;;;;;5026767;28;59444;-69
2023/08/20 13:23:48;;;;;;;5.83;1.03;;;;;;;;;;5023319;28;58690;-67
2023/08/20 13:26:14;;;;;;;2.40;0.73;;;;;;;;;;5026023;28;58025;-69
2023/08/20 13:28:39;;;;;;;1.57;1.07;;;;;;;;;;5028935;28;57753;-68
2023/08/20 13:31:04;;;;;;;2.08;1.08;;;;;;;;;;5030130;28;58188;-68
2023/08/20 13:33:29;;;;;;;2.95;0.73;;;;;;;;;;5030384;28;57672;-69
2023/08/20 13:35:55;;;;;;;2.30;0.55;;;;;;;;;;5028019;28;57725;-68
2023/08/20 13:38:22;;;;;;;3.15;1.08;;;;;;;;;;5030803;28;58256;-67
2023/08/20 13:40:47;;;;;;;4.43;0.90;;;;;;;;;;5029860;28;57937;-69
2023/08/20 13:43:12;;;;;;;5.33;1.00;;;;;;;;;;5027819;28;58312;-68
2023/08/20 13:45:37;;;;;;;4.55;0.77;;;;;;;;;;5029211;28;58220;-69
2023/08/20 13:48:03;;;;;;;2.55;0.90;;;;;;;;;;5031990;28;58009;-70
2023/08/20 13:50:29;;;;;;;4.88;1.42;;;;;;;;;;5028712;28;58122;-68
2023/08/20 13:52:55;;;;;;;1.08;0.80;;;;;;;;;;5029118;28;58327;-68
2023/08/20 13:55:21;;;;;;;2.65;0.70;;;;;;;;;;5029973;28;57883;-69
2023/08/20 13:57:46;;;;;;;3.42;1.27;;;;;;;;;;5036338;28;58049;-71
2023/08/20 14:00:12;;;;;;;3.75;1.83;;;;;;;;;;5032787;28;58091;-69
2023/08/20 14:02:37;;;;;;;11.05;1.17;;;;;;;;;;5031415;28;58239;-70
2023/08/20 14:05:04;;;;;;;2.63;0.70;;;;;;;;;;5027143;28;57976;-69
2023/08/20 14:07:29;;;;;;;9.13;1.50;;;;;;;;;;5030819;28;58874;-68
2023/08/20 14:09:54;;;;;;;3.83;0.90;;;;;;;;;;5031044;28;57761;-67
2023/08/20 14:12:19;;;;;;;8.93;0.93;;;;;;;;;;5032516;28;58131;-72
2023/08/20 14:14:45;;;;;;;13.57;1.43;;;;;;;;;;5032268;28;58432;-69
2023/08/20 14:17:10;;;;;;;5.07;1.30;;;;;;;;;;5034254;28;58156;-70
2023/08/20 14:19:35;;;;;;;3.70;0.93;;;;;;;;;;5032381;28;58319;-67
2023/08/20 14:22:00;;;;;;;1.52;1.23;;;;;;;;;;5031597;28;58052;-68
2023/08/20 14:24:25;;;;;;;0.52;0.52;;;;;;;;;;5025039;28;57787;-68
2023/08/20 14:26:50;;;;;;;1.45;0.90;;;;;;;;;;5027236;28;57503;-75
2023/08/20 14:29:16;;;;;;;3.50;1.00;;;;;;;;;;5031485;28;57663;-74
2023/08/20 14:31:42;;;;;;;2.85;1.05;;;;;;;;;;5033613;28;57831;-73
2023/08/20 14:34:07;;;;;;;2.28;1.25;;;;;;;;;;5032947;28;58521;-69
2023/08/20 14:36:32;;;;;;;1.33;1.23;;;;;;;;;;5036633;28;58312;-70